Time;durP1;ratioP1;P1;durP2;ratioP2;P2;SDS_P1;SDS_P2;PMS_P1;PMS_P2;Temp;Humidity;BMP_temperature;BMP_pressure;BME280_temperature;BME280_humidity;BME280_pressure;Samples;Min_cycle;Max_cycle;Signal;HPM_P1;HPM_P2
2023/05/01 00:00:13;;;;;;;;;;;;;;;18.52;61.05;101540.63;1249137;23;657;-70
2023/05/01 00:01:05;;;;;;;;;;;;;;;18.53;60.71;101536.94;1246545;23;644;-69
2023/05/01 00:01:55;;;;;;;;;;;;;;;18.52;60.62;101536.09;1246779;23;642;-70
2023/05/01 00:02:45;;;;;;;;;;;;;;;18.48;60.66;101539.16;1250452;23;676;-70
2023/05/01 00:03:36;;;;;;;;;;;;;;;18.45;60.61;101536.78;1246426;23;620;-69
2023/05/01 00:04:26;;;;;;;;;;;;;;;18.46;60.72;101531.22;1250633;23;637;-70
2023/05/01 00:05:17;;;;;;;;;;;;;;;18.48;60.57;101525.69;1250947;23;1893;-69
2023/05/01 00:06:07;;;;;;;;;;;;;;;18.49;60.79;101530.09;1250896;23;700;-69
2023/05/01 00:06:58;;;;;;;;;;;;;;;18.48;61.28;101536.47;1247086;23;595;-70
2023/05/01 00:07:48;;;;;;;;;;;;;;;18.50;60.74;101537.19;1247186;23;674;-69
2023/05/01 00:08:39;;;;;;;;;;;;;;;18.51;60.39;101528.97;1247295;23;724;-69
2023/05/01 00:09:31;;;;;;;;;;;;;;;18.50;60.33;101532.66;1250585;23;681;-69
2023/05/01 00:10:21;;;;;;;;;;;;;;;18.53;60.75;101532.41;1250825;23;606;-70
2023/05/01 00:11:11;;;;;;;;;;;;;;;18.51;60.85;101522.72;1250859;23;657;-69
2023/05/01 00:12:02;;;;;;;;;;;;;;;18.52;60.98;101524.44;1250859;23;673;-69
2023/05/01 00:12:53;;;;;;;;;;;;;;;18.52;60.70;101524.44;1250855;23;622;-69
2023/05/01 00:13:43;;;;;;;;;;;;;;;18.50;60.91;101521.84;1250714;23;673;-69
2023/05/01 00:14:33;;;;;;;;;;;;;;;18.50;60.54;101526.41;1250445;23;704;-69
2023/05/01 00:15:24;;;;;;;;;;;;;;;18.48;60.37;101520.28;1250695;23;600;-69
2023/05/01 00:16:16;;;;;;;;;;;;;;;18.47;60.75;101518.56;1250216;23;629;-69
2023/05/01 00:17:06;;;;;;;;;;;;;;;18.47;60.62;101514.03;1251009;23;622;-69
2023/05/01 00:17:57;;;;;;;;;;;;;;;18.46;61.29;101517.72;1250929;23;666;-69
2023/05/01 00:18:47;;;;;;;;;;;;;;;18.46;60.71;101515.00;1250533;23;630;-70
2023/05/01 00:19:38;;;;;;;;;;;;;;;18.44;60.87;101517.03;1250815;23;626;-70
2023/05/01 00:20:28;;;;;;;;;;;;;;;18.43;60.73;101519.84;1246792;23;693;-69
2023/05/01 00:21:19;;;;;;;;;;;;;;;18.40;60.76;101518.28;1246554;23;700;-69
2023/05/01 00:22:09;;;;;;;;;;;;;;;18.39;61.29;101508.47;1250461;23;704;-69
2023/05/01 00:23:00;;;;;;;;;;;;;;;18.43;60.73;101515.31;1246311;23;685;-69
2023/05/01 00:23:50;;;;;;;;;;;;;;;18.42;60.59;101510.91;1250689;23;712;-69
2023/05/01 00:24:41;;;;;;;;;;;;;;;18.43;60.71;101511.75;1246717;23;658;-69
2023/05/01 00:25:31;;;;;;;;;;;;;;;18.41;60.89;101508.34;1250805;23;1923;-69
2023/05/01 00:26:25;;;;;;;;;;;;;;;18.38;60.79;101501.34;1250651;23;622;-69
2023/05/01 00:27:15;;;;;;;;;;;;;;;18.36;61.35;101503.31;1250754;23;590;-69
2023/05/01 00:28:06;;;;;;;;;;;;;;;18.36;61.42;101506.03;1250388;23;650;-69
2023/05/01 00:28:57;;;;;;;;;;;;;;;18.37;61.46;101502.34;1250461;23;673;-70
2023/05/01 00:29:47;;;;;;;;;;;;;;;18.33;60.94;101504.44;1250698;23;657;-69
2023/05/01 00:30:39;;;;;;;;;;;;;;;18.34;60.80;101503.47;1250096;23;594;-69
2023/05/01 00:31:29;;;;;;;;;;;;;;;18.35;60.65;101502.47;1250842;23;954;-69
2023/05/01 00:32:20;;;;;;;;;;;;;;;18.32;60.90;101502.72;1250796;23;606;-69
2023/05/01 00:33:10;;;;;;;;;;;;;;;18.30;61.60;101504.69;1250578;23;618;-69
2023/05/01 00:34:01;;;;;;;;;;;;;;;18.29;61.36;101496.75;1250856;23;645;-69
2023/05/01 00:34:51;;;;;;;;;;;;;;;18.29;60.98;101492.19;1250710;23;673;-69
2023/05/01 00:35:42;;;;;;;;;;;;;;;18.30;60.97;101499.31;1246430;23;599;-70
2023/05/01 00:36:32;;;;;;;;;;;;;;;18.27;61.46;101491.47;1246522;23;631;-71
2023/05/01 00:37:23;;;;;;;;;;;;;;;18.28;60.91;101493.19;1250693;23;598;-70
2023/05/01 00:38:13;;;;;;;;;;;;;;;18.28;61.89;101495.88;1250489;23;633;-70
2023/05/01 00:39:06;;;;;;;;;;;;;;;18.28;61.49;101492.34;1246348;23;643;-70
2023/05/01 00:39:56;;;;;;;;;;;;;;;18.24;61.30;101497.16;1247148;23;580;-70
2023/05/01 00:40:47;;;;;;;;;;;;;;;18.23;61.44;101491.91;1250683;23;634;-70
2023/05/01 00:41:37;;;;;;;;;;;;;;;18.18;61.79;101491.44;1246812;23;733;-70
2023/05/01 00:42:28;;;;;;;;;;;;;;;18.16;61.80;101494.25;1250655;23;634;-70
2023/05/01 00:43:18;;;;;;;;;;;;;;;18.20;61.84;101497.56;1250598;23;672;-70
2023/05/01 00:44:09;;;;;;;;;;;;;;;18.24;61.53;101494.47;1250751;23;630;-69
2023/05/01 00:45:00;;;;;;;;;;;;;;;18.28;61.27;101489.63;1245685;23;1042;-70
2023/05/01 00:45:50;;;;;;;;;;;;;;;18.24;61.16;101480.97;1246988;23;674;-70
2023/05/01 00:46:42;;;;;;;;;;;;;;;18.25;60.88;101488.09;1251028;23;626;-70
2023/05/01 00:47:33;;;;;;;;;;;;;;;18.24;61.19;101482.81;1250717;23;693;-70
2023/05/01 00:48:24;;;;;;;;;;;;;;;18.24;61.17;101477.41;1248193;23;670;-70
2023/05/01 00:49:16;;;;;;;;;;;;;;;18.20;61.42;101478.66;1246198;23;643;-70
2023/05/01 00:50:06;;;;;;;;;;;;;;;18.16;61.59;101474.53;1250531;23;792;-70
2023/05/01 00:50:57;;;;;;;;;;;;;;;18.17;61.77;101479.78;1250564;23;609;-70
2023/05/01 00:51:48;;;;;;;;;;;;;;;18.18;61.28;101472.53;1250517;23;656;-70
2023/05/01 00:52:38;;;;;;;;;;;;;;;18.13;61.69;101470.25;1250950;23;601;-70
2023/05/01 00:53:28;;;;;;;;;;;;;;;18.17;61.60;101473.53;1250550;23;627;-70
2023/05/01 00:54:19;;;;;;;;;;;;;;;18.12;62.02;101479.31;1250743;23;606;-70
2023/05/01 00:55:10;;;;;;;;;;;;;;;18.16;61.47;101474.53;1248090;23;661;-70
2023/05/01 00:56:00;;;;;;;;;;;;;;;18.16;61.51;101467.28;1250614;23;664;-70
2023/05/01 00:56:51;;;;;;;;;;;;;;;18.15;62.11;101468.28;1247163;23;642;-70
2023/05/01 00:57:41;;;;;;;;;;;;;;;18.18;61.36;101468.00;1250527;23;645;-70
2023/05/01 00:58:31;;;;;;;;;;;;;;;18.19;61.92;101464.31;1250733;23;637;-70
2023/05/01 00:59:22;;;;;;;;;;;;;;;18.19;61.31;101463.47;1250231;23;669;-70
2023/05/01 01:00:13;;;;;;;;;;;;;;;18.15;61.99;101467.41;1251014;23;649;-70
2023/05/01 01:01:08;;;;;;;;;;;;;;;18.16;61.73;101461.88;1250586;23;633;-70
2023/05/01 01:01:59;;;;;;;;;;;;;;;18.12;61.54;101468.53;1246512;23;662;-70
2023/05/01 01:02:49;;;;;;;;;;;;;;;18.11;62.00;101461.44;1250581;23;711;-70
2023/05/01 01:03:40;;;;;;;;;;;;;;;18.06;62.00;101458.28;1250699;23;620;-70
2023/05/01 01:04:32;;;;;;;;;;;;;;;18.06;61.96;101462.84;1250586;23;621;-70
2023/05/01 01:05:22;;;;;;;;;;;;;;;18.05;61.95;101464.69;1250307;23;1889;-70
2023/05/01 01:06:12;;;;;;;;;;;;;;;18.05;62.05;101464.69;1250381;23;629;-70
2023/05/01 01:07:04;;;;;;;;;;;;;;;18.09;61.54;101460.72;1250395;23;631;-70
2023/05/01 01:07:55;;;;;;;;;;;;;;;18.09;61.90;101463.44;1250298;23;700;-70
2023/05/01 01:08:45;;;;;;;;;;;;;;;18.05;62.42;101451.19;1250626;23;661;-71
2023/05/01 01:09:36;;;;;;;;;;;;;;;18.07;61.74;101457.31;1247964;23;638;-70
2023/05/01 01:10:27;;;;;;;;;;;;;;;18.05;62.50;101451.19;1246793;23;627;-70
2023/05/01 01:11:18;;;;;;;;;;;;;;;18.06;61.98;101454.75;1246789;23;643;-70
2023/05/01 01:12:09;;;;;;;;;;;;;;;18.06;61.56;101452.03;1246130;23;619;-70
2023/05/01 01:12:59;;;;;;;;;;;;;;;18.04;61.44;101449.47;1250631;23;617;-70
2023/05/01 01:13:50;;;;;;;;;;;;;;;18.03;62.38;101450.47;1250500;23;602;-70
2023/05/01 01:14:40;;;;;;;;;;;;;;;18.01;61.86;101450.59;1250525;23;614;-70
2023/05/01 01:15:31;;;;;;;;;;;;;;;18.01;61.46;101442.50;1250821;23;685;-70
2023/05/01 01:16:21;;;;;;;;;;;;;;;17.99;62.07;101451.72;1246852;23;721;-70
2023/05/01 01:17:12;;;;;;;;;;;;;;;17.98;61.76;101444.59;1251037;23;629;-70
2023/05/01 01:18:04;;;;;;;;;;;;;;;17.99;61.91;101441.78;1250684;23;657;-70
2023/05/01 01:18:54;;;;;;;;;;;;;;;17.99;61.85;101446.31;1246730;23;646;-70
2023/05/01 01:19:45;;;;;;;;;;;;;;;17.98;62.00;101447.31;1251230;23;688;-70
2023/05/01 01:20:36;;;;;;;;;;;;;;;18.01;61.86;101442.50;1246873;23;663;-70
2023/05/01 01:21:27;;;;;;;;;;;;;;;18.02;61.34;101437.97;1251058;23;637;-70
2023/05/01 01:22:17;;;;;;;;;;;;;;;17.99;62.24;101433.69;1250577;23;766;-70
2023/05/01 01:23:08;;;;;;;;;;;;;;;17.98;62.15;101441.91;1246951;23;662;-70
2023/05/01 01:23:59;;;;;;;;;;;;;;;17.96;61.75;101442.03;1251113;23;626;-70
2023/05/01 01:24:49;;;;;;;;;;;;;;;17.96;61.81;101438.47;1251080;23;681;-70
2023/05/01 01:25:39;;;;;;;;;;;;;;;17.93;62.52;101438.75;1250668;23;2207;-71
2023/05/01 01:26:30;;;;;;;;;;;;;;;17.94;62.00;101435.06;1250743;23;646;-70
2023/05/01 01:27:20;;;;;;;;;;;;;;;17.94;62.67;101426.97;1250702;23;700;-70
2023/05/01 01:28:11;;;;;;;;;;;;;;;17.95;61.65;101428.69;1250921;23;610;-70
2023/05/01 01:29:01;;;;;;;;;;;;;;;17.93;62.07;101430.66;1250640;23;665;-70
2023/05/01 01:29:52;;;;;;;;;;;;;;;17.94;62.55;101432.38;1246796;23;611;-70
2023/05/01 01:30:42;;;;;;;;;;;;;;;17.92;61.84;101426.25;1250968;23;755;-69
2023/05/01 01:31:33;;;;;;;;;;;;;;;17.91;61.81;101425.41;1250926;23;618;-70
2023/05/01 01:32:23;;;;;;;;;;;;;;;17.91;62.35;101428.13;1250811;23;815;-70
2023/05/01 01:33:13;;;;;;;;;;;;;;;17.87;62.32;101426.66;1246858;23;620;-70
2023/05/01 01:34:04;;;;;;;;;;;;;;;17.86;62.06;101424.97;1250659;23;649;-71
2023/05/01 01:34:55;;;;;;;;;;;;;;;17.87;62.47;101421.28;1249075;23;661;-70
2023/05/01 01:35:46;;;;;;;;;;;;;;;17.89;62.84;101413.06;1247537;23;638;-70
2023/05/01 01:36:36;;;;;;;;;;;;;;;17.91;62.65;101411.94;1247093;23;635;-70
2023/05/01 01:37:27;;;;;;;;;;;;;;;17.95;62.38;101415.19;1247891;23;678;-70
2023/05/01 01:38:17;;;;;;;;;;;;;;;17.95;62.42;101415.19;1250910;23;594;-70
2023/05/01 01:39:07;;;;;;;;;;;;;;;17.93;62.06;101409.94;1250598;23;681;-70
2023/05/01 01:39:58;;;;;;;;;;;;;;;17.93;62.06;101411.78;1251006;23;649;-70
2023/05/01 01:40:48;;;;;;;;;;;;;;;17.91;61.92;101413.78;1246754;23;607;-70
2023/05/01 01:41:39;;;;;;;;;;;;;;;17.90;61.72;101412.06;1250738;23;616;-70
2023/05/01 01:42:29;;;;;;;;;;;;;;;17.90;62.09;101418.31;1249822;23;653;-70
2023/05/01 01:43:19;;;;;;;;;;;;;;;17.91;62.28;101405.69;1246223;23;677;-70
2023/05/01 01:44:10;;;;;;;;;;;;;;;17.90;62.51;101407.53;1250566;23;618;-70
2023/05/01 01:45:01;;;;;;;;;;;;;;;17.89;62.02;101407.66;1250290;23;1025;-70
2023/05/01 01:45:52;;;;;;;;;;;;;;;17.86;62.07;101403.38;1251065;23;654;-70
2023/05/01 01:46:42;;;;;;;;;;;;;;;17.83;62.96;101403.66;1250926;23;637;-70
2023/05/01 01:47:33;;;;;;;;;;;;;;;17.81;62.60;101400.22;1251107;23;705;-70
2023/05/01 01:48:23;;;;;;;;;;;;;;;17.84;62.42;101399.09;1249245;23;646;-69
2023/05/01 01:49:13;;;;;;;;;;;;;;;17.84;62.63;101399.97;1250700;23;626;-70
2023/05/01 01:50:04;;;;;;;;;;;;;;;17.85;62.60;101401.69;1250871;23;629;-69
2023/05/01 01:50:54;;;;;;;;;;;;;;;17.82;62.57;101390.28;1250608;23;668;-69
2023/05/01 01:51:45;;;;;;;;;;;;;;;17.79;62.56;101387.88;1250899;23;642;-70
2023/05/01 01:52:35;;;;;;;;;;;;;;;17.78;62.48;101395.09;1246731;23;650;-69
2023/05/01 01:53:26;;;;;;;;;;;;;;;17.79;62.38;101393.25;1247057;23;629;-69
2023/05/01 01:54:16;;;;;;;;;;;;;;;17.79;62.40;101391.41;1250957;23;622;-70
2023/05/01 01:55:07;;;;;;;;;;;;;;;17.80;62.86;101387.72;1250897;23;626;-70
2023/05/01 01:55:57;;;;;;;;;;;;;;;17.81;62.30;101383.19;1246922;23;583;-70
2023/05/01 01:56:48;;;;;;;;;;;;;;;17.80;62.44;101392.28;1246432;23;724;-70
2023/05/01 01:57:38;;;;;;;;;;;;;;;17.83;62.94;101392.00;1246500;23;752;-70
2023/05/01 01:58:29;;;;;;;;;;;;;;;17.85;61.99;101384.66;1247283;23;623;-70
2023/05/01 01:59:19;;;;;;;;;;;;;;;17.85;62.49;101390.03;1249129;23;650;-70
2023/05/01 02:00:10;;;;;;;;;;;;;;;17.87;62.04;101385.38;1250703;23;630;-70
2023/05/01 02:01:00;;;;;;;;;;;;;;;17.85;62.81;101380.09;1250815;23;630;-70
2023/05/01 02:01:50;;;;;;;;;;;;;;;17.87;62.13;101379.97;1250671;23;669;-70
2023/05/01 02:02:41;;;;;;;;;;;;;;;17.85;61.76;101377.41;1250958;23;638;-70
2023/05/01 02:03:31;;;;;;;;;;;;;;;17.84;62.07;101383.78;1246734;23;603;-70
2023/05/01 02:04:22;;;;;;;;;;;;;;;17.84;62.09;101381.09;1250709;23;602;-70
2023/05/01 02:05:12;;;;;;;;;;;;;;;17.87;62.38;101372.75;1250700;23;650;-70
2023/05/01 02:06:03;;;;;;;;;;;;;;;17.87;62.39;101370.03;1250613;23;724;-70
2023/05/01 02:06:53;;;;;;;;;;;;;;;17.86;62.73;101381.81;1251080;23;662;-70
2023/05/01 02:07:43;;;;;;;;;;;;;;;17.85;62.26;101377.41;1251100;23;665;-69
2023/05/01 02:08:34;;;;;;;;;;;;;;;17.85;62.56;101379.25;1250929;23;610;-70
2023/05/01 02:09:25;;;;;;;;;;;;;;;17.85;61.89;101368.47;1250906;23;704;-70
2023/05/01 02:10:16;;;;;;;;;;;;;;;17.83;62.52;101367.75;1250807;23;606;-70
2023/05/01 02:11:07;;;;;;;;;;;;;;;17.82;62.38;101369.59;1250716;23;665;-70
2023/05/01 02:11:57;;;;;;;;;;;;;;;17.83;62.86;101367.75;1250292;23;622;-70
2023/05/01 02:12:48;;;;;;;;;;;;;;;17.78;62.33;101369.97;1250607;23;811;-70
2023/05/01 02:13:38;;;;;;;;;;;;;;;17.77;61.99;101366.41;1251292;23;590;-70
2023/05/01 02:14:28;;;;;;;;;;;;;;;17.81;62.03;101364.31;1251085;23;669;-69
2023/05/01 02:15:19;;;;;;;;;;;;;;;17.84;61.79;101366.75;1251255;23;673;-70
2023/05/01 02:16:09;;;;;;;;;;;;;;;17.79;62.55;101366.28;1250982;23;672;-70
2023/05/01 02:17:00;;;;;;;;;;;;;;;17.79;62.73;101360.91;1251290;23;621;-70
2023/05/01 02:17:50;;;;;;;;;;;;;;;17.77;63.06;101360.19;1247139;23;721;-70
2023/05/01 02:18:41;;;;;;;;;;;;;;;17.79;62.60;101359.06;1249327;23;689;-70
2023/05/01 02:19:31;;;;;;;;;;;;;;;17.82;62.32;101357.94;1247332;23;627;-70
2023/05/01 02:20:22;;;;;;;;;;;;;;;17.78;63.01;101361.88;1250929;23;673;-70
2023/05/01 02:21:12;;;;;;;;;;;;;;;17.75;62.16;101362.16;1251158;23;661;-70
2023/05/01 02:22:03;;;;;;;;;;;;;;;17.71;62.43;101350.81;1251357;23;650;-70
2023/05/01 02:22:53;;;;;;;;;;;;;;;17.70;62.45;101351.78;1246779;23;687;-70
2023/05/01 02:23:44;;;;;;;;;;;;;;;17.68;62.74;101351.06;1251053;23;669;-70
2023/05/01 02:24:34;;;;;;;;;;;;;;;17.69;62.55;101353.63;1250797;23;617;-70
2023/05/01 02:25:24;;;;;;;;;;;;;;;17.71;63.08;101353.50;1250930;23;1889;-70
2023/05/01 02:26:15;;;;;;;;;;;;;;;17.73;62.29;101347.97;1251096;23;626;-70
2023/05/01 02:27:06;;;;;;;;;;;;;;;17.72;62.37;101348.97;1251435;23;638;-69
2023/05/01 02:27:57;;;;;;;;;;;;;;;17.68;62.46;101351.91;1247497;23;635;-70
2023/05/01 02:28:47;;;;;;;;;;;;;;;17.71;62.30;101349.94;1251606;23;649;-70
2023/05/01 02:29:37;;;;;;;;;;;;;;;17.74;62.48;101349.66;1251378;23;657;-70
2023/05/01 02:30:28;;;;;;;;;;;;;;;17.69;62.82;101337.47;1247473;23;670;-70
2023/05/01 02:31:18;;;;;;;;;;;;;;;17.68;62.23;101342.97;1247477;23;678;-70
2023/05/01 02:32:09;;;;;;;;;;;;;;;17.66;62.95;101337.72;1247887;23;634;-69
2023/05/01 02:32:59;;;;;;;;;;;;;;;17.66;62.48;101337.72;1251162;23;617;-70
2023/05/01 02:33:49;;;;;;;;;;;;;;;17.68;63.13;101330.34;1250974;23;625;-70
2023/05/01 02:34:40;;;;;;;;;;;;;;;17.70;63.07;101332.91;1246886;23;651;-70
2023/05/01 02:35:31;;;;;;;;;;;;;;;17.66;62.80;101336.84;1247013;23;713;-70
2023/05/01 02:36:21;;;;;;;;;;;;;;;17.66;62.07;101332.31;1251074;23;699;-70
2023/05/01 02:37:12;;;;;;;;;;;;;;;17.65;62.41;101330.63;1250845;23;674;-70
2023/05/01 02:38:02;;;;;;;;;;;;;;;17.65;62.69;101332.47;1251101;23;654;-70
2023/05/01 02:38:52;;;;;;;;;;;;;;;17.63;62.78;101326.31;1251017;23;634;-70
2023/05/01 02:39:43;;;;;;;;;;;;;;;17.61;63.03;101330.97;1246813;23;642;-70
2023/05/01 02:40:33;;;;;;;;;;;;;;;17.59;63.20;101324.84;1250964;23;723;-70
2023/05/01 02:41:24;;;;;;;;;;;;;;;17.59;62.81;101320.31;1249385;23;704;-70
2023/05/01 02:42:14;;;;;;;;;;;;;;;17.60;62.64;101326.56;1251095;23;653;-70
2023/05/01 02:43:05;;;;;;;;;;;;;;;17.60;63.31;101327.44;1251315;23;633;-70
2023/05/01 02:43:55;;;;;;;;;;;;;;;17.63;62.73;101326.31;1251324;23;644;-70
2023/05/01 02:44:46;;;;;;;;;;;;;;;17.63;62.87;101324.47;1246498;23;1152;-70
2023/05/01 02:45:37;;;;;;;;;;;;;;;17.62;63.24;101317.38;1250741;23;1941;-70
2023/05/01 02:46:27;;;;;;;;;;;;;;;17.62;62.90;101320.06;1250753;23;601;-69
2023/05/01 02:47:18;;;;;;;;;;;;;;;17.59;62.28;101314.94;1251229;23;697;-70
2023/05/01 02:48:08;;;;;;;;;;;;;;;17.62;62.60;101314.66;1250843;23;661;-70
2023/05/01 02:48:59;;;;;;;;;;;;;;;17.58;62.15;101313.22;1251083;23;762;-70
2023/05/01 02:49:50;;;;;;;;;;;;;;;17.56;63.00;101309.81;1247155;23;674;-69
2023/05/01 02:50:40;;;;;;;;;;;;;;;17.57;62.78;101308.81;1250890;23;646;-70
2023/05/01 02:51:31;;;;;;;;;;;;;;;17.58;62.59;101309.69;1246488;23;669;-69
2023/05/01 02:52:21;;;;;;;;;;;;;;;17.57;63.15;101310.66;1247076;23;627;-69
2023/05/01 02:53:12;;;;;;;;;;;;;;;17.55;62.72;101308.13;1246667;23;631;-69
2023/05/01 02:54:02;;;;;;;;;;;;;;;17.59;63.12;101306.84;1251003;23;664;-69
2023/05/01 02:54:53;;;;;;;;;;;;;;;17.59;62.46;101312.25;1249562;23;748;-69
2023/05/01 02:55:43;;;;;;;;;;;;;;;17.57;62.59;101303.44;1246514;23;666;-69
2023/05/01 02:56:34;;;;;;;;;;;;;;;17.54;62.29;101295.63;1251218;23;664;-69
2023/05/01 02:57:24;;;;;;;;;;;;;;;17.54;62.57;101298.34;1247092;23;629;-69
2023/05/01 02:58:15;;;;;;;;;;;;;;;17.54;62.27;101290.25;1250987;23;618;-70
2023/05/01 02:59:05;;;;;;;;;;;;;;;17.54;62.87;101294.78;1247558;23;670;-70
2023/05/01 02:59:56;;;;;;;;;;;;;;;17.52;62.74;101294.91;1247314;23;654;-70
2023/05/01 03:00:46;;;;;;;;;;;;;;;17.52;62.55;101291.38;1249478;23;612;-70
2023/05/01 03:01:38;;;;;;;;;;;;;;;17.55;62.89;101293.81;1251277;23;688;-69
2023/05/01 03:02:29;;;;;;;;;;;;;;;17.52;62.21;101286.81;1250867;23;692;-70
2023/05/01 03:03:19;;;;;;;;;;;;;;;17.53;63.24;101282.28;1247099;23;631;-70
2023/05/01 03:04:09;;;;;;;;;;;;;;;17.53;63.24;101288.53;1249672;23;756;-70
2023/05/01 03:05:00;;;;;;;;;;;;;;;17.50;62.30;101291.50;1247814;23;662;-70
2023/05/01 03:05:51;;;;;;;;;;;;;;;17.46;62.57;101286.50;1247198;23;1885;-69
2023/05/01 03:06:43;;;;;;;;;;;;;;;17.45;62.98;101291.03;1251368;23;642;-69
2023/05/01 03:07:34;;;;;;;;;;;;;;;17.46;63.32;101290.03;1251121;23;637;-69
2023/05/01 03:08:24;;;;;;;;;;;;;;;17.46;62.80;101284.66;1251322;23;602;-70
2023/05/01 03:09:15;;;;;;;;;;;;;;;17.45;63.03;101285.66;1247042;23;666;-70
2023/05/01 03:10:06;;;;;;;;;;;;;;;17.49;62.62;101292.47;1250456;23;610;-70
2023/05/01 03:10:57;;;;;;;;;;;;;;;17.50;63.28;101291.50;1247632;23;630;-70
2023/05/01 03:11:47;;;;;;;;;;;;;;;17.52;62.83;101291.38;1249963;23;615;-70
2023/05/01 03:12:37;;;;;;;;;;;;;;;17.57;63.06;101295.34;1249728;23;638;-70
2023/05/01 03:13:28;;;;;;;;;;;;;;;17.56;62.63;101288.25;1249350;23;658;-70
2023/05/01 03:14:18;;;;;;;;;;;;;;;17.56;62.41;101293.63;1247038;23;615;-70
2023/05/01 03:15:10;;;;;;;;;;;;;;;17.54;62.04;101292.94;1247638;23;674;-70
2023/05/01 03:16:01;;;;;;;;;;;;;;;17.52;62.48;101283.28;1249546;23;625;-70
2023/05/01 03:16:51;;;;;;;;;;;;;;;17.51;62.71;101287.81;1251263;23;606;-70
2023/05/01 03:17:42;;;;;;;;;;;;;;;17.48;63.30;101280.00;1249661;23;713;-70
2023/05/01 03:18:32;;;;;;;;;;;;;;;17.48;62.98;101287.22;1251201;23;629;-70
2023/05/01 03:19:23;;;;;;;;;;;;;;;17.49;62.65;101287.09;1247289;23;643;-71
2023/05/01 03:20:13;;;;;;;;;;;;;;;17.48;62.36;101285.38;1250775;23;656;-70
2023/05/01 03:21:04;;;;;;;;;;;;;;;17.45;62.83;101291.03;1250767;23;633;-70
2023/05/01 03:21:54;;;;;;;;;;;;;;;17.45;63.07;101290.19;1251159;23;669;-70
2023/05/01 03:22:45;;;;;;;;;;;;;;;17.50;62.79;101279.88;1247127;23;709;-70
2023/05/01 03:23:37;;;;;;;;;;;;;;;17.49;63.33;101284.41;1251222;23;645;-70
2023/05/01 03:24:27;;;;;;;;;;;;;;;17.48;62.93;101288.06;1250485;23;665;-71
2023/05/01 03:25:18;;;;;;;;;;;;;;;17.49;62.73;101283.53;1250905;23;704;-70
2023/05/01 03:26:08;;;;;;;;;;;;;;;17.46;62.50;101281.97;1251450;23;637;-71
2023/05/01 03:26:59;;;;;;;;;;;;;;;17.45;62.65;101282.94;1251367;23;645;-71
2023/05/01 03:27:49;;;;;;;;;;;;;;;17.44;63.05;101283.94;1246770;23;752;-71
2023/05/01 03:28:39;;;;;;;;;;;;;;;17.48;62.56;101285.38;1250932;23;676;-71
2023/05/01 03:29:30;;;;;;;;;;;;;;;17.47;62.63;101280.97;1251211;23;736;-71
2023/05/01 03:30:21;;;;;;;;;;;;;;;17.46;62.53;101287.34;1250811;23;641;-71
2023/05/01 03:31:11;;;;;;;;;;;;;;;17.48;62.38;101284.53;1251091;23;610;-70
2023/05/01 03:32:01;;;;;;;;;;;;;;;17.50;63.24;101282.56;1251144;23;661;-69
2023/05/01 03:32:53;;;;;;;;;;;;;;;17.46;62.79;101281.97;1251427;23;641;-69
2023/05/01 03:33:44;;;;;;;;;;;;;;;17.40;63.08;101277.09;1246868;23;610;-70
2023/05/01 03:34:34;;;;;;;;;;;;;;;17.39;62.80;101272.69;1249235;23;627;-69
2023/05/01 03:35:25;;;;;;;;;;;;;;;17.40;63.43;101271.72;1247224;23;673;-69
2023/05/01 03:36:16;;;;;;;;;;;;;;;17.40;62.82;101273.53;1251052;23;602;-69
2023/05/01 03:37:06;;;;;;;;;;;;;;;17.39;62.84;101272.69;1251253;23;669;-69
2023/05/01 03:37:57;;;;;;;;;;;;;;;17.39;62.71;101267.31;1251030;23;669;-69
2023/05/01 03:38:47;;;;;;;;;;;;;;;17.40;62.69;101269.00;1251206;23;641;-69
2023/05/01 03:39:37;;;;;;;;;;;;;;;17.39;62.56;101267.31;1251095;23;611;-69
2023/05/01 03:40:28;;;;;;;;;;;;;;;17.41;63.13;101264.47;1251347;23;653;-70
2023/05/01 03:41:18;;;;;;;;;;;;;;;17.39;63.06;101269.13;1250915;23;634;-69
2023/05/01 03:42:09;;;;;;;;;;;;;;;17.38;63.02;101268.28;1250463;23;664;-69
2023/05/01 03:42:59;;;;;;;;;;;;;;;17.34;62.83;101267.72;1251167;23;656;-69
2023/05/01 03:43:50;;;;;;;;;;;;;;;17.37;62.84;101271.16;1250846;23;669;-69
2023/05/01 03:44:40;;;;;;;;;;;;;;;17.35;62.99;101269.44;1246617;23;1365;-69
2023/05/01 03:45:31;;;;;;;;;;;;;;;17.34;62.84;101262.34;1247001;23;1901;-69
2023/05/01 03:46:21;;;;;;;;;;;;;;;17.34;62.43;101265.03;1246414;23;666;-69
2023/05/01 03:47:11;;;;;;;;;;;;;;;17.33;63.05;101267.84;1250855;23;661;-69
2023/05/01 03:48:02;;;;;;;;;;;;;;;17.34;62.83;101265.03;1250531;23;719;-69
2023/05/01 03:48:53;;;;;;;;;;;;;;;17.36;62.94;101267.59;1247398;23;654;-69
2023/05/01 03:49:43;;;;;;;;;;;;;;;17.37;62.87;101265.75;1247237;23;638;-69
2023/05/01 03:50:34;;;;;;;;;;;;;;;17.37;63.07;101266.59;1248671;23;650;-69
2023/05/01 03:51:26;;;;;;;;;;;;;;;17.34;62.51;101258.78;1251016;23;656;-69
2023/05/01 03:52:16;;;;;;;;;;;;;;;17.31;62.56;101259.91;1251051;23;735;-69
2023/05/01 03:53:06;;;;;;;;;;;;;;;17.33;62.97;101266.03;1250893;23;669;-69
2023/05/01 03:53:57;;;;;;;;;;;;;;;17.32;63.17;101263.44;1251163;23;668;-70
2023/05/01 03:54:48;;;;;;;;;;;;;;;17.30;62.69;101265.41;1250875;23;681;-70
2023/05/01 03:55:39;;;;;;;;;;;;;;;17.33;62.57;101255.25;1250769;23;681;-70
2023/05/01 03:56:34;;;;;;;;;;;;;;;17.35;62.91;101257.81;1246894;23;629;-70
2023/05/01 03:57:25;;;;;;;;;;;;;;;17.33;62.77;101265.16;1246699;23;643;-70
2023/05/01 03:58:16;;;;;;;;;;;;;;;17.34;63.26;101261.47;1246922;23;603;-70
2023/05/01 03:59:06;;;;;;;;;;;;;;;17.36;62.97;101256.81;1250954;23;657;-69
2023/05/01 03:59:57;;;;;;;;;;;;;;;17.39;63.02;101259.22;1247510;23;634;-70
2023/05/01 04:00:49;;;;;;;;;;;;;;;17.39;62.67;101253.84;1247308;23;757;-70
2023/05/01 04:01:40;;;;;;;;;;;;;;;17.39;62.88;101256.53;1248022;23;665;-69
2023/05/01 04:02:30;;;;;;;;;;;;;;;17.35;62.87;101255.97;1251233;23;578;-69
2023/05/01 04:03:20;;;;;;;;;;;;;;;17.35;62.70;101257.81;1250585;23;700;-69
2023/05/01 04:04:11;;;;;;;;;;;;;;;17.33;62.43;101254.38;1249169;23;745;-70
2023/05/01 04:05:01;;;;;;;;;;;;;;;17.37;62.53;101247.75;1251122;23;657;-69
2023/05/01 04:05:52;;;;;;;;;;;;;;;17.39;62.85;101258.38;1247103;23;1882;-70
2023/05/01 04:06:43;;;;;;;;;;;;;;;17.39;62.56;101258.38;1247120;23;607;-70
2023/05/01 04:07:33;;;;;;;;;;;;;;;17.36;62.79;101254.13;1247812;23;760;-70
2023/05/01 04:08:24;;;;;;;;;;;;;;;17.32;62.69;101258.91;1249429;23;635;-70
2023/05/01 04:09:14;;;;;;;;;;;;;;;17.34;62.39;101250.72;1251254;23;633;-70
2023/05/01 04:10:06;;;;;;;;;;;;;;;17.34;62.33;101248.00;1250984;23;759;-69
2023/05/01 04:10:56;;;;;;;;;;;;;;;17.32;62.72;101255.38;1251391;23;641;-70
2023/05/01 04:11:46;;;;;;;;;;;;;;;17.35;62.55;101257.81;1250901;23;681;-70
2023/05/01 04:12:37;;;;;;;;;;;;;;;17.30;63.04;101249.25;1250573;23;654;-70
2023/05/01 04:13:27;;;;;;;;;;;;;;;17.31;63.27;101249.13;1250998;23;629;-70
2023/05/01 04:14:18;;;;;;;;;;;;;;;17.34;62.76;101250.72;1250959;23;634;-70
2023/05/01 04:15:08;;;;;;;;;;;;;;;17.37;62.90;101245.06;1251347;23;641;-70
2023/05/01 04:15:59;;;;;;;;;;;;;;;17.35;63.08;101255.13;1251257;23;653;-70
2023/05/01 04:16:50;;;;;;;;;;;;;;;17.33;62.68;101249.00;1250913;23;672;-70
2023/05/01 04:17:42;;;;;;;;;;;;;;;17.29;62.98;101252.94;1251070;23;724;-70
2023/05/01 04:18:32;;;;;;;;;;;;;;;17.25;63.12;101251.50;1250863;23;629;-70
2023/05/01 04:19:23;;;;;;;;;;;;;;;17.28;62.79;101252.09;1251065;23;657;-70
2023/05/01 04:20:15;;;;;;;;;;;;;;;17.25;63.19;101254.19;1250831;23;614;-69
2023/05/01 04:21:06;;;;;;;;;;;;;;;17.23;63.36;101253.47;1246854;23;624;-69
2023/05/01 04:21:57;;;;;;;;;;;;;;;17.25;63.42;101246.97;1251044;23;634;-69
2023/05/01 04:22:48;;;;;;;;;;;;;;;17.23;63.36;101253.47;1246784;23;663;-69
2023/05/01 04:23:38;;;;;;;;;;;;;;;17.24;63.22;101244.41;1247029;23;715;-69
2023/05/01 04:24:28;;;;;;;;;;;;;;;17.22;63.43;101246.34;1247597;23;651;-69
2023/05/01 04:25:19;;;;;;;;;;;;;;;17.25;63.17;101246.09;1250974;23;630;-69
2023/05/01 04:26:09;;;;;;;;;;;;;;;17.23;63.02;101248.06;1250967;23;618;-70
2023/05/01 04:27:00;;;;;;;;;;;;;;;17.20;63.13;101248.34;1246950;23;670;-69